sensor_id;sensor_type;location;lat;lon;timestamp;temperature;humidity
13203;DHT22;6666;51.626;7.530;2022-11-23T00:01:30;8.20;99.90
13203;DHT22;6666;51.626;7.530;2022-11-23T00:04:00;8.20;99.90
13203;DHT22;6666;51.626;7.530;2022-11-23T00:06:30;8.20;99.90
13203;DHT22;6666;51.626;7.530;2022-11-23T00:08:58;8.20;99.90
13203;DHT22;6666;51.626;7.530;2022-11-23T00:11:27;8.30;99.90
13203;DHT22;6666;51.626;7.530;2022-11-23T00:13:56;8.30;99.90
13203;DHT22;6666;51.626;7.530;2022-11-23T00:16:27;8.30;99.90
13203;DHT22;6666;51.626;7.530;2022-11-23T00:18:57;8.30;99.90
13203;DHT22;6666;51.626;7.530;2022-11-23T00:21:27;8.30;99.90
13203;DHT22;6666;51.626;7.530;2022-11-23T00:23:56;8.40;99.90
13203;DHT22;6666;51.626;7.530;2022-11-23T00:26:24;8.40;99.90
13203;DHT22;6666;51.626;7.530;2022-11-23T00:28:53;8.40;99.90
13203;DHT22;6666;51.626;7.530;2022-11-23T00:31:27;8.40;99.90
13203;DHT22;6666;51.626;7.530;2022-11-23T00:33:56;8.40;99.90
13203;DHT22;6666;51.626;7.530;2022-11-23T00:36:25;8.40;99.90
13203;DHT22;6666;51.626;7.530;2022-11-23T00:38:54;8.40;99.90
13203;DHT22;6666;51.626;7.530;2022-11-23T00:41:25;8.40;99.90
13203;DHT22;6666;51.626;7.530;2022-11-23T00:43:54;8.40;99.90
13203;DHT22;6666;51.626;7.530;2022-11-23T00:46:23;8.40;99.90
13203;DHT22;6666;51.626;7.530;2022-11-23T00:48:54;8.50;99.90
13203;DHT22;6666;51.626;7.530;2022-11-23T00:51:26;8.50;99.90
13203;DHT22;6666;51.626;7.530;2022-11-23T00:53:54;8.50;99.90
13203;DHT22;6666;51.626;7.530;2022-11-23T00:56:24;8.50;99.90
13203;DHT22;6666;51.626;7.530;2022-11-23T00:58:55;8.50;99.90
13203;DHT22;6666;51.626;7.530;2022-11-23T01:01:25;8.50;99.90
13203;DHT22;6666;51.626;7.530;2022-11-23T01:03:56;8.50;99.90
13203;DHT22;6666;51.626;7.530;2022-11-23T01:06:30;8.50;99.90
13203;DHT22;6666;51.626;7.530;2022-11-23T01:09:00;8.50;99.90
13203;DHT22;6666;51.626;7.530;2022-11-23T01:11:30;8.50;99.90
13203;DHT22;6666;51.626;7.530;2022-11-23T01:13:59;8.60;99.90
13203;DHT22;6666;51.626;7.530;2022-11-23T01:16:29;8.60;99.90
13203;DHT22;6666;51.626;7.530;2022-11-23T01:19:02;8.60;99.90
13203;DHT22;6666;51.626;7.530;2022-11-23T01:21:32;8.60;99.90
13203;DHT22;6666;51.626;7.530;2022-11-23T01:24:03;8.60;99.90
13203;DHT22;6666;51.626;7.530;2022-11-23T01:26:32;8.60;99.90
13203;DHT22;6666;51.626;7.530;2022-11-23T01:29:01;8.60;99.90
13203;DHT22;6666;51.626;7.530;2022-11-23T01:31:29;8.60;99.90
13203;DHT22;6666;51.626;7.530;2022-11-23T01:34:00;8.60;99.90
13203;DHT22;6666;51.626;7.530;2022-11-23T01:36:31;8.60;99.90
13203;DHT22;6666;51.626;7.530;2022-11-23T01:39:00;8.60;99.90
13203;DHT22;6666;51.626;7.530;2022-11-23T01:41:31;8.60;99.90
13203;DHT22;6666;51.626;7.530;2022-11-23T01:44:00;8.60;99.90
13203;DHT22;6666;51.626;7.530;2022-11-23T01:46:28;8.60;99.90
13203;DHT22;6666;51.626;7.530;2022-11-23T01:49:00;8.70;99.90
13203;DHT22;6666;51.626;7.530;2022-11-23T01:51:32;8.70;99.90
13203;DHT22;6666;51.626;7.530;2022-11-23T01:54:04;8.60;99.90
13203;DHT22;6666;51.626;7.530;2022-11-23T01:56:38;8.70;99.90
13203;DHT22;6666;51.626;7.530;2022-11-23T01:59:11;8.70;99.90
13203;DHT22;6666;51.626;7.530;2022-11-23T02:01:41;8.60;99.90
13203;DHT22;6666;51.626;7.530;2022-11-23T02:04:15;8.60;99.90
13203;DHT22;6666;51.626;7.530;2022-11-23T02:06:45;8.60;99.90
13203;DHT22;6666;51.626;7.530;2022-11-23T02:09:15;8.50;99.90
13203;DHT22;6666;51.626;7.530;2022-11-23T02:11:43;8.50;99.90
13203;DHT22;6666;51.626;7.530;2022-11-23T02:14:13;8.40;99.90
13203;DHT22;6666;51.626;7.530;2022-11-23T02:16:49;8.40;99.90
13203;DHT22;6666;51.626;7.530;2022-11-23T02:19:25;8.40;99.90
13203;DHT22;6666;51.626;7.530;2022-11-23T02:21:57;8.40;99.90
13203;DHT22;6666;51.626;7.530;2022-11-23T02:24:29;8.30;99.90
13203;DHT22;6666;51.626;7.530;2022-11-23T02:27:03;8.30;99.90
13203;DHT22;6666;51.626;7.530;2022-11-23T02:29:32;8.30;99.90
13203;DHT22;6666;51.626;7.530;2022-11-23T02:32:01;8.20;99.90
13203;DHT22;6666;51.626;7.530;2022-11-23T02:34:30;8.20;99.90
13203;DHT22;6666;51.626;7.530;2022-11-23T02:36:59;8.20;99.90
13203;DHT22;6666;51.626;7.530;2022-11-23T02:39:31;8.20;99.90
13203;DHT22;6666;51.626;7.530;2022-11-23T02:42:04;8.20;99.90
13203;DHT22;6666;51.626;7.530;2022-11-23T02:44:42;8.20;99.90
13203;DHT22;6666;51.626;7.530;2022-11-23T02:47:12;8.20;99.90
13203;DHT22;6666;51.626;7.530;2022-11-23T02:49:41;8.20;99.90
13203;DHT22;6666;51.626;7.530;2022-11-23T02:52:09;8.20;99.90
13203;DHT22;6666;51.626;7.530;2022-11-23T02:54:38;8.20;99.90
13203;DHT22;6666;51.626;7.530;2022-11-23T02:57:08;8.20;99.90
13203;DHT22;6666;51.626;7.530;2022-11-23T02:59:38;8.30;99.90
13203;DHT22;6666;51.626;7.530;2022-11-23T03:02:06;8.40;99.90
13203;DHT22;6666;51.626;7.530;2022-11-23T03:04:34;8.30;99.90
13203;DHT22;6666;51.626;7.530;2022-11-23T03:07:03;8.30;99.90
13203;DHT22;6666;51.626;7.530;2022-11-23T03:09:31;8.30;99.90
13203;DHT22;6666;51.626;7.530;2022-11-23T03:12:01;8.30;99.90
13203;DHT22;6666;51.626;7.530;2022-11-23T03:14:31;8.40;99.90
13203;DHT22;6666;51.626;7.530;2022-11-23T03:16:59;8.30;99.90
13203;DHT22;6666;51.626;7.530;2022-11-23T03:19:33;8.40;99.90
13203;DHT22;6666;51.626;7.530;2022-11-23T03:22:02;8.30;99.90
13203;DHT22;6666;51.626;7.530;2022-11-23T03:24:31;8.40;99.90
13203;DHT22;6666;51.626;7.530;2022-11-23T03:27:03;8.50;99.90
13203;DHT22;6666;51.626;7.530;2022-11-23T03:29:33;8.40;99.90
13203;DHT22;6666;51.626;7.530;2022-11-23T03:32:09;8.40;99.90
13203;DHT22;6666;51.626;7.530;2022-11-23T03:34:40;8.40;99.90
13203;DHT22;6666;51.626;7.530;2022-11-23T03:37:08;8.40;99.90
13203;DHT22;6666;51.626;7.530;2022-11-23T03:39:37;8.40;99.90
13203;DHT22;6666;51.626;7.530;2022-11-23T03:42:31;8.50;99.90
13203;DHT22;6666;51.626;7.530;2022-11-23T03:45:01;8.50;99.90
13203;DHT22;6666;51.626;7.530;2022-11-23T03:47:30;8.60;99.90
13203;DHT22;6666;51.626;7.530;2022-11-23T03:49:58;8.60;99.90
13203;DHT22;6666;51.626;7.530;2022-11-23T03:52:26;8.60;99.90
13203;DHT22;6666;51.626;7.530;2022-11-23T03:54:55;8.60;99.90
13203;DHT22;6666;51.626;7.530;2022-11-23T03:57:23;8.60;99.90
13203;DHT22;6666;51.626;7.530;2022-11-23T03:59:52;8.60;99.90
13203;DHT22;6666;51.626;7.530;2022-11-23T04:02:22;8.60;99.90
13203;DHT22;6666;51.626;7.530;2022-11-23T04:05:00;8.60;99.90
13203;DHT22;6666;51.626;7.530;2022-11-23T04:07:52;8.60;99.90
13203;DHT22;6666;51.626;7.530;2022-11-23T04:10:23;8.60;99.90
13203;DHT22;6666;51.626;7.530;2022-11-23T04:13:12;8.50;99.90
13203;DHT22;6666;51.626;7.530;2022-11-23T04:15:41;8.50;99.90
13203;DHT22;6666;51.626;7.530;2022-11-23T04:18:10;8.40;99.90
13203;DHT22;6666;51.626;7.530;2022-11-23T04:20:39;8.40;99.90
13203;DHT22;6666;51.626;7.530;2022-11-23T04:23:07;8.40;99.90
13203;DHT22;6666;51.626;7.530;2022-11-23T04:25:40;8.30;99.90
13203;DHT22;6666;51.626;7.530;2022-11-23T04:28:10;8.30;99.90
13203;DHT22;6666;51.626;7.530;2022-11-23T04:30:39;8.30;99.90
13203;DHT22;6666;51.626;7.530;2022-11-23T04:33:07;8.30;99.90
13203;DHT22;6666;51.626;7.530;2022-11-23T04:35:39;8.30;99.90
13203;DHT22;6666;51.626;7.530;2022-11-23T04:38:07;8.30;99.90
13203;DHT22;6666;51.626;7.530;2022-11-23T04:40:36;8.30;99.90
13203;DHT22;6666;51.626;7.530;2022-11-23T04:43:06;8.30;99.90
13203;DHT22;6666;51.626;7.530;2022-11-23T04:45:37;8.30;99.90
13203;DHT22;6666;51.626;7.530;2022-11-23T04:48:12;8.30;99.90
13203;DHT22;6666;51.626;7.530;2022-11-23T04:50:43;8.30;99.90
13203;DHT22;6666;51.626;7.530;2022-11-23T04:53:19;8.20;99.90
13203;DHT22;6666;51.626;7.530;2022-11-23T04:55:48;8.20;99.90
13203;DHT22;6666;51.626;7.530;2022-11-23T04:58:17;8.20;99.90
13203;DHT22;6666;51.626;7.530;2022-11-23T05:00:50;8.20;99.90
13203;DHT22;6666;51.626;7.530;2022-11-23T05:03:18;8.30;99.90
13203;DHT22;6666;51.626;7.530;2022-11-23T05:05:49;8.20;99.90
13203;DHT22;6666;51.626;7.530;2022-11-23T05:08:18;8.20;99.90
13203;DHT22;6666;51.626;7.530;2022-11-23T05:11:09;8.20;99.90
13203;DHT22;6666;51.626;7.530;2022-11-23T05:13:37;8.30;99.90
13203;DHT22;6666;51.626;7.530;2022-11-23T05:16:06;8.20;99.90
13203;DHT22;6666;51.626;7.530;2022-11-23T05:18:37;8.20;99.90
13203;DHT22;6666;51.626;7.530;2022-11-23T05:21:08;8.20;99.90
13203;DHT22;6666;51.626;7.530;2022-11-23T05:23:36;8.20;99.90
13203;DHT22;6666;51.626;7.530;2022-11-23T05:26:05;8.30;99.90
13203;DHT22;6666;51.626;7.530;2022-11-23T05:28:33;8.30;99.90
13203;DHT22;6666;51.626;7.530;2022-11-23T05:31:10;8.20;99.90
13203;DHT22;6666;51.626;7.530;2022-11-23T05:33:42;8.30;99.90
13203;DHT22;6666;51.626;7.530;2022-11-23T05:36:12;8.30;99.90
13203;DHT22;6666;51.626;7.530;2022-11-23T05:38:41;8.30;99.90
13203;DHT22;6666;51.626;7.530;2022-11-23T05:41:25;8.30;99.90
13203;DHT22;6666;51.626;7.530;2022-11-23T05:43:58;8.30;99.90
13203;DHT22;6666;51.626;7.530;2022-11-23T05:46:28;8.20;99.90
13203;DHT22;6666;51.626;7.530;2022-11-23T05:48:56;8.30;99.90
13203;DHT22;6666;51.626;7.530;2022-11-23T05:51:30;8.30;99.90
13203;DHT22;6666;51.626;7.530;2022-11-23T05:54:00;8.20;99.90
13203;DHT22;6666;51.626;7.530;2022-11-23T05:56:42;8.30;99.90
13203;DHT22;6666;51.626;7.530;2022-11-23T05:59:17;8.20;99.90
13203;DHT22;6666;51.626;7.530;2022-11-23T06:01:51;8.20;99.90
13203;DHT22;6666;51.626;7.530;2022-11-23T06:04:25;8.20;99.90
13203;DHT22;6666;51.626;7.530;2022-11-23T06:06:56;8.20;99.90
13203;DHT22;6666;51.626;7.530;2022-11-23T06:09:34;8.20;99.90
13203;DHT22;6666;51.626;7.530;2022-11-23T06:12:07;8.20;99.90
13203;DHT22;6666;51.626;7.530;2022-11-23T06:14:35;8.10;99.90
13203;DHT22;6666;51.626;7.530;2022-11-23T06:17:04;8.20;99.90
13203;DHT22;6666;51.626;7.530;2022-11-23T06:19:37;8.10;99.90
13203;DHT22;6666;51.626;7.530;2022-11-23T06:22:07;8.20;99.90
13203;DHT22;6666;51.626;7.530;2022-11-23T06:24:43;8.20;99.90
13203;DHT22;6666;51.626;7.530;2022-11-23T06:27:30;8.10;99.90
13203;DHT22;6666;51.626;7.530;2022-11-23T06:30:03;8.10;99.90
13203;DHT22;6666;51.626;7.530;2022-11-23T06:32:32;8.10;99.90
13203;DHT22;6666;51.626;7.530;2022-11-23T06:35:00;8.20;99.90
13203;DHT22;6666;51.626;7.530;2022-11-23T06:37:34;8.10;99.90
13203;DHT22;6666;51.626;7.530;2022-11-23T06:40:03;8.20;99.90
13203;DHT22;6666;51.626;7.530;2022-11-23T06:42:32;8.20;99.90
13203;DHT22;6666;51.626;7.530;2022-11-23T06:45:13;8.20;99.90
13203;DHT22;6666;51.626;7.530;2022-11-23T06:47:41;8.20;99.90
13203;DHT22;6666;51.626;7.530;2022-11-23T06:50:10;8.30;99.90
13203;DHT22;6666;51.626;7.530;2022-11-23T06:52:43;8.30;99.90
13203;DHT22;6666;51.626;7.530;2022-11-23T06:55:12;8.20;99.90
13203;DHT22;6666;51.626;7.530;2022-11-23T06:57:40;8.20;99.90
13203;DHT22;6666;51.626;7.530;2022-11-23T07:00:11;8.20;99.90
13203;DHT22;6666;51.626;7.530;2022-11-23T07:02:41;8.20;99.90
13203;DHT22;6666;51.626;7.530;2022-11-23T07:05:09;8.20;99.90
13203;DHT22;6666;51.626;7.530;2022-11-23T07:07:38;8.30;99.90
13203;DHT22;6666;51.626;7.530;2022-11-23T07:10:14;8.30;99.90
13203;DHT22;6666;51.626;7.530;2022-11-23T07:12:45;8.30;99.90
13203;DHT22;6666;51.626;7.530;2022-11-23T07:15:17;8.30;99.90
13203;DHT22;6666;51.626;7.530;2022-11-23T07:17:46;8.30;99.90
13203;DHT22;6666;51.626;7.530;2022-11-23T07:20:15;8.30;99.90
13203;DHT22;6666;51.626;7.530;2022-11-23T07:22:44;8.40;99.90
13203;DHT22;6666;51.626;7.530;2022-11-23T07:25:13;8.40;99.90
13203;DHT22;6666;51.626;7.530;2022-11-23T07:27:44;8.40;99.90
13203;DHT22;6666;51.626;7.530;2022-11-23T07:30:13;8.40;99.90
13203;DHT22;6666;51.626;7.530;2022-11-23T07:32:42;8.40;99.90
13203;DHT22;6666;51.626;7.530;2022-11-23T07:35:12;8.40;99.90
13203;DHT22;6666;51.626;7.530;2022-11-23T07:37:43;8.50;99.90
13203;DHT22;6666;51.626;7.530;2022-11-23T07:40:12;8.50;99.90
13203;DHT22;6666;51.626;7.530;2022-11-23T07:42:41;8.50;99.90
13203;DHT22;6666;51.626;7.530;2022-11-23T07:45:12;8.50;99.90
13203;DHT22;6666;51.626;7.530;2022-11-23T07:47:44;8.50;99.90
13203;DHT22;6666;51.626;7.530;2022-11-23T07:50:13;8.50;99.90
13203;DHT22;6666;51.626;7.530;2022-11-23T07:52:41;8.50;99.90
13203;DHT22;6666;51.626;7.530;2022-11-23T07:55:10;8.60;99.90
13203;DHT22;6666;51.626;7.530;2022-11-23T07:57:38;8.70;99.90
13203;DHT22;6666;51.626;7.530;2022-11-23T08:00:09;8.70;99.90
13203;DHT22;6666;51.626;7.530;2022-11-23T08:02:38;8.80;99.90
13203;DHT22;6666;51.626;7.530;2022-11-23T08:05:27;8.80;99.90
13203;DHT22;6666;51.626;7.530;2022-11-23T08:07:57;8.80;99.90
13203;DHT22;6666;51.626;7.530;2022-11-23T08:10:26;8.90;99.90
13203;DHT22;6666;51.626;7.530;2022-11-23T08:12:56;8.90;99.90
13203;DHT22;6666;51.626;7.530;2022-11-23T08:15:26;8.90;99.90
13203;DHT22;6666;51.626;7.530;2022-11-23T08:17:55;8.90;99.90
13203;DHT22;6666;51.626;7.530;2022-11-23T08:20:23;9.00;99.90
13203;DHT22;6666;51.626;7.530;2022-11-23T08:22:52;9.00;99.90
13203;DHT22;6666;51.626;7.530;2022-11-23T08:25:22;9.10;99.90
13203;DHT22;6666;51.626;7.530;2022-11-23T08:27:54;9.10;99.90
13203;DHT22;6666;51.626;7.530;2022-11-23T08:30:22;9.10;99.90
13203;DHT22;6666;51.626;7.530;2022-11-23T08:32:52;9.20;99.90
13203;DHT22;6666;51.626;7.530;2022-11-23T08:35:20;9.20;99.90
13203;DHT22;6666;51.626;7.530;2022-11-23T08:37:48;9.30;99.90
13203;DHT22;6666;51.626;7.530;2022-11-23T08:40:17;9.30;99.90
13203;DHT22;6666;51.626;7.530;2022-11-23T08:42:51;9.40;99.90
13203;DHT22;6666;51.626;7.530;2022-11-23T08:45:19;9.40;99.90
13203;DHT22;6666;51.626;7.530;2022-11-23T08:47:48;9.50;99.90
13203;DHT22;6666;51.626;7.530;2022-11-23T08:50:18;9.50;99.90
13203;DHT22;6666;51.626;7.530;2022-11-23T08:52:47;9.60;99.90
13203;DHT22;6666;51.626;7.530;2022-11-23T08:55:15;9.60;99.90
13203;DHT22;6666;51.626;7.530;2022-11-23T08:57:44;9.70;99.90
13203;DHT22;6666;51.626;7.530;2022-11-23T09:00:13;9.70;99.90
13203;DHT22;6666;51.626;7.530;2022-11-23T09:02:46;9.70;99.90
13203;DHT22;6666;51.626;7.530;2022-11-23T09:05:14;9.80;99.90
13203;DHT22;6666;51.626;7.530;2022-11-23T09:07:44;9.80;99.90
13203;DHT22;6666;51.626;7.530;2022-11-23T09:10:13;9.80;99.90
13203;DHT22;6666;51.626;7.530;2022-11-23T09:12:45;9.90;99.90
13203;DHT22;6666;51.626;7.530;2022-11-23T09:15:14;9.90;99.90
13203;DHT22;6666;51.626;7.530;2022-11-23T09:17:42;9.90;99.90
13203;DHT22;6666;51.626;7.530;2022-11-23T09:20:11;10.00;99.90
13203;DHT22;6666;51.626;7.530;2022-11-23T09:22:40;10.10;99.90
13203;DHT22;6666;51.626;7.530;2022-11-23T09:25:11;10.20;99.90
13203;DHT22;6666;51.626;7.530;2022-11-23T09:27:39;10.30;99.90
13203;DHT22;6666;51.626;7.530;2022-11-23T09:30:09;10.30;99.90
13203;DHT22;6666;51.626;7.530;2022-11-23T09:32:37;10.40;99.90
13203;DHT22;6666;51.626;7.530;2022-11-23T09:35:06;10.40;99.90
13203;DHT22;6666;51.626;7.530;2022-11-23T09:37:35;10.40;99.90
13203;DHT22;6666;51.626;7.530;2022-11-23T09:40:04;10.40;99.90
13203;DHT22;6666;51.626;7.530;2022-11-23T09:42:50;10.50;99.90
13203;DHT22;6666;51.626;7.530;2022-11-23T09:45:29;10.40;99.90
13203;DHT22;6666;51.626;7.530;2022-11-23T09:48:24;10.30;99.90
13203;DHT22;6666;51.626;7.530;2022-11-23T09:50:58;10.20;99.90
13203;DHT22;6666;51.626;7.530;2022-11-23T09:53:36;10.10;99.90
13203;DHT22;6666;51.626;7.530;2022-11-23T09:56:14;10.00;99.90
13203;DHT22;6666;51.626;7.530;2022-11-23T09:58:45;10.00;99.90
13203;DHT22;6666;51.626;7.530;2022-11-23T10:01:15;10.00;99.90
13203;DHT22;6666;51.626;7.530;2022-11-23T10:03:44;9.90;99.90
13203;DHT22;6666;51.626;7.530;2022-11-23T10:06:18;9.90;99.90
13203;DHT22;6666;51.626;7.530;2022-11-23T10:09:00;9.90;99.90
13203;DHT22;6666;51.626;7.530;2022-11-23T10:11:48;9.90;99.90
13203;DHT22;6666;51.626;7.530;2022-11-23T10:14:34;9.90;99.90
13203;DHT22;6666;51.626;7.530;2022-11-23T10:17:13;9.90;99.90
13203;DHT22;6666;51.626;7.530;2022-11-23T10:19:53;9.90;99.90
13203;DHT22;6666;51.626;7.530;2022-11-23T10:22:30;9.90;99.90
13203;DHT22;6666;51.626;7.530;2022-11-23T10:25:03;9.90;99.90
13203;DHT22;6666;51.626;7.530;2022-11-23T10:27:37;10.00;99.90
13203;DHT22;6666;51.626;7.530;2022-11-23T10:30:11;9.90;99.90
13203;DHT22;6666;51.626;7.530;2022-11-23T10:32:43;9.90;99.90
13203;DHT22;6666;51.626;7.530;2022-11-23T10:35:13;9.90;99.90
13203;DHT22;6666;51.626;7.530;2022-11-23T10:37:43;10.00;99.90
13203;DHT22;6666;51.626;7.530;2022-11-23T10:40:15;10.00;99.90
13203;DHT22;6666;51.626;7.530;2022-11-23T10:42:47;10.10;99.90
13203;DHT22;6666;51.626;7.530;2022-11-23T10:45:23;10.10;99.90
13203;DHT22;6666;51.626;7.530;2022-11-23T10:47:52;10.20;99.90
13203;DHT22;6666;51.626;7.530;2022-11-23T10:50:25;10.20;99.90
13203;DHT22;6666;51.626;7.530;2022-11-23T10:52:58;10.30;99.90
13203;DHT22;6666;51.626;7.530;2022-11-23T10:55:29;10.30;99.90
13203;DHT22;6666;51.626;7.530;2022-11-23T10:57:58;10.30;99.90
13203;DHT22;6666;51.626;7.530;2022-11-23T11:00:28;10.30;99.90
13203;DHT22;6666;51.626;7.530;2022-11-23T11:02:58;10.30;99.90
13203;DHT22;6666;51.626;7.530;2022-11-23T11:05:31;10.20;99.90
13203;DHT22;6666;51.626;7.530;2022-11-23T11:08:21;10.10;99.90
13203;DHT22;6666;51.626;7.530;2022-11-23T11:10:57;10.20;99.90
13203;DHT22;6666;51.626;7.530;2022-11-23T11:13:29;10.10;99.90
13203;DHT22;6666;51.626;7.530;2022-11-23T11:16:00;10.10;99.90
13203;DHT22;6666;51.626;7.530;2022-11-23T11:18:31;10.10;99.90
13203;DHT22;6666;51.626;7.530;2022-11-23T11:21:04;10.00;99.90
13203;DHT22;6666;51.626;7.530;2022-11-23T11:23:33;10.10;99.90
13203;DHT22;6666;51.626;7.530;2022-11-23T11:26:12;10.00;99.90
13203;DHT22;6666;51.626;7.530;2022-11-23T11:28:47;10.00;99.90
13203;DHT22;6666;51.626;7.530;2022-11-23T11:31:48;10.00;99.90
13203;DHT22;6666;51.626;7.530;2022-11-23T11:34:22;10.00;99.90
13203;DHT22;6666;51.626;7.530;2022-11-23T11:36:57;10.00;99.90
13203;DHT22;6666;51.626;7.530;2022-11-23T11:39:31;9.90;99.90
13203;DHT22;6666;51.626;7.530;2022-11-23T11:42:03;10.00;99.90
13203;DHT22;6666;51.626;7.530;2022-11-23T11:44:35;9.90;99.90
13203;DHT22;6666;51.626;7.530;2022-11-23T11:47:12;9.90;99.90
13203;DHT22;6666;51.626;7.530;2022-11-23T11:49:47;9.90;99.90
13203;DHT22;6666;51.626;7.530;2022-11-23T11:52:18;10.00;99.90
13203;DHT22;6666;51.626;7.530;2022-11-23T11:54:51;9.90;99.90
13203;DHT22;6666;51.626;7.530;2022-11-23T11:57:24;9.90;99.90
13203;DHT22;6666;51.626;7.530;2022-11-23T11:59:55;10.00;99.90
13203;DHT22;6666;51.626;7.530;2022-11-23T12:02:28;9.90;99.90
13203;DHT22;6666;51.626;7.530;2022-11-23T12:05:07;10.00;99.90
13203;DHT22;6666;51.626;7.530;2022-11-23T12:07:42;10.00;99.90
13203;DHT22;6666;51.626;7.530;2022-11-23T12:10:14;9.90;99.90
13203;DHT22;6666;51.626;7.530;2022-11-23T12:12:44;10.00;99.90
13203;DHT22;6666;51.626;7.530;2022-11-23T12:15:17;10.00;99.90
13203;DHT22;6666;51.626;7.530;2022-11-23T12:18:26;9.90;99.90
13203;DHT22;6666;51.626;7.530;2022-11-23T12:21:02;9.90;99.90
13203;DHT22;6666;51.626;7.530;2022-11-23T12:23:45;10.00;99.90
13203;DHT22;6666;51.626;7.530;2022-11-23T12:26:23;9.90;99.90
13203;DHT22;6666;51.626;7.530;2022-11-23T12:29:09;10.00;99.90
13203;DHT22;6666;51.626;7.530;2022-11-23T12:31:47;10.00;99.90
13203;DHT22;6666;51.626;7.530;2022-11-23T12:34:32;9.90;99.90
13203;DHT22;6666;51.626;7.530;2022-11-23T12:37:16;10.00;99.90
13203;DHT22;6666;51.626;7.530;2022-11-23T12:42:49;10.00;99.90
13203;DHT22;6666;51.626;7.530;2022-11-23T12:45:39;10.00;99.90
13203;DHT22;6666;51.626;7.530;2022-11-23T12:48:22;10.00;99.90
13203;DHT22;6666;51.626;7.530;2022-11-23T12:51:02;9.90;99.90
13203;DHT22;6666;51.626;7.530;2022-11-23T12:53:40;9.90;99.90
13203;DHT22;6666;51.626;7.530;2022-11-23T12:56:18;9.90;99.90
13203;DHT22;6666;51.626;7.530;2022-11-23T12:58:49;10.00;99.90
13203;DHT22;6666;51.626;7.530;2022-11-23T13:01:21;10.20;99.90
13203;DHT22;6666;51.626;7.530;2022-11-23T13:13:29;10.50;99.90
13203;DHT22;6666;51.626;7.530;2022-11-23T13:19:26;10.40;99.90
13203;DHT22;6666;51.626;7.530;2022-11-23T13:21:57;10.50;99.90
13203;DHT22;6666;51.626;7.530;2022-11-23T13:24:30;10.40;99.90
13203;DHT22;6666;51.626;7.530;2022-11-23T13:27:39;10.60;99.90
13203;DHT22;6666;51.626;7.530;2022-11-23T13:30:22;10.60;99.90
13203;DHT22;6666;51.626;7.530;2022-11-23T13:32:54;10.60;99.90
13203;DHT22;6666;51.626;7.530;2022-11-23T13:35:58;10.60;99.90
13203;DHT22;6666;51.626;7.530;2022-11-23T13:38:39;10.50;99.90
13203;DHT22;6666;51.626;7.530;2022-11-23T13:44:26;10.40;99.90
13203;DHT22;6666;51.626;7.530;2022-11-23T13:47:00;10.20;99.90
13203;DHT22;6666;51.626;7.530;2022-11-23T13:49:40;10.10;99.90
13203;DHT22;6666;51.626;7.530;2022-11-23T13:52:28;10.00;99.90
13203;DHT22;6666;51.626;7.530;2022-11-23T13:55:17;9.90;99.90
13203;DHT22;6666;51.626;7.530;2022-11-23T14:01:01;9.80;99.90
13203;DHT22;6666;51.626;7.530;2022-11-23T14:03:51;9.70;99.90
13203;DHT22;6666;51.626;7.530;2022-11-23T14:06:31;9.70;99.90
13203;DHT22;6666;51.626;7.530;2022-11-23T14:09:04;9.70;99.90
13203;DHT22;6666;51.626;7.530;2022-11-23T14:11:38;9.70;99.90
13203;DHT22;6666;51.626;7.530;2022-11-23T14:14:17;9.60;99.90
13203;DHT22;6666;51.626;7.530;2022-11-23T14:20:10;9.50;99.90
13203;DHT22;6666;51.626;7.530;2022-11-23T14:22:51;9.50;99.90
13203;DHT22;6666;51.626;7.530;2022-11-23T14:25:34;9.40;99.90
13203;DHT22;6666;51.626;7.530;2022-11-23T14:28:13;9.40;99.90
13203;DHT22;6666;51.626;7.530;2022-11-23T14:30:56;9.40;99.90
13203;DHT22;6666;51.626;7.530;2022-11-23T14:33:34;9.30;99.90
13203;DHT22;6666;51.626;7.530;2022-11-23T14:36:15;9.30;99.90
13203;DHT22;6666;51.626;7.530;2022-11-23T14:41:44;9.20;99.90
13203;DHT22;6666;51.626;7.530;2022-11-23T14:44:19;9.10;99.90
13203;DHT22;6666;51.626;7.530;2022-11-23T14:46:58;9.20;99.90
13203;DHT22;6666;51.626;7.530;2022-11-23T14:49:30;9.10;99.90
13203;DHT22;6666;51.626;7.530;2022-11-23T14:51:59;9.10;99.90
13203;DHT22;6666;51.626;7.530;2022-11-23T14:54:28;8.90;99.90
13203;DHT22;6666;51.626;7.530;2022-11-23T14:57:00;9.00;99.90
13203;DHT22;6666;51.626;7.530;2022-11-23T14:59:32;9.00;99.90
13203;DHT22;6666;51.626;7.530;2022-11-23T15:02:05;8.90;99.90
13203;DHT22;6666;51.626;7.530;2022-11-23T15:04:39;8.90;99.90
13203;DHT22;6666;51.626;7.530;2022-11-23T15:07:21;8.80;99.90
13203;DHT22;6666;51.626;7.530;2022-11-23T15:09:52;8.90;99.90
13203;DHT22;6666;51.626;7.530;2022-11-23T15:12:25;8.90;99.90
13203;DHT22;6666;51.626;7.530;2022-11-23T15:14:55;8.70;99.90
13203;DHT22;6666;51.626;7.530;2022-11-23T15:17:24;8.80;99.90
13203;DHT22;6666;51.626;7.530;2022-11-23T15:19:55;8.80;99.90
13203;DHT22;6666;51.626;7.530;2022-11-23T15:22:24;8.80;99.90
13203;DHT22;6666;51.626;7.530;2022-11-23T15:24:53;8.70;99.90
13203;DHT22;6666;51.626;7.530;2022-11-23T15:27:25;8.70;99.90
13203;DHT22;6666;51.626;7.530;2022-11-23T15:29:56;8.70;99.90
13203;DHT22;6666;51.626;7.530;2022-11-23T15:32:26;8.70;99.90
13203;DHT22;6666;51.626;7.530;2022-11-23T15:35:02;8.70;99.90
13203;DHT22;6666;51.626;7.530;2022-11-23T15:37:39;8.60;99.90
13203;DHT22;6666;51.626;7.530;2022-11-23T15:40:11;8.50;99.90
13203;DHT22;6666;51.626;7.530;2022-11-23T15:42:41;8.60;99.90
13203;DHT22;6666;51.626;7.530;2022-11-23T15:45:34;8.70;99.90
13203;DHT22;6666;51.626;7.530;2022-11-23T15:48:04;8.70;99.90
13203;DHT22;6666;51.626;7.530;2022-11-23T15:50:36;8.80;99.90
13203;DHT22;6666;51.626;7.530;2022-11-23T15:53:12;8.70;99.90
13203;DHT22;6666;51.626;7.530;2022-11-23T15:55:41;8.70;99.90
13203;DHT22;6666;51.626;7.530;2022-11-23T15:58:14;8.80;99.90
13203;DHT22;6666;51.626;7.530;2022-11-23T16:00:48;8.80;99.90
13203;DHT22;6666;51.626;7.530;2022-11-23T16:03:27;8.80;99.90
13203;DHT22;6666;51.626;7.530;2022-11-23T16:06:22;8.80;99.90
13203;DHT22;6666;51.626;7.530;2022-11-23T16:08:51;8.80;99.90
13203;DHT22;6666;51.626;7.530;2022-11-23T16:11:32;8.90;99.90
13203;DHT22;6666;51.626;7.530;2022-11-23T16:14:14;8.90;99.90
13203;DHT22;6666;51.626;7.530;2022-11-23T16:16:45;9.00;99.90
13203;DHT22;6666;51.626;7.530;2022-11-23T16:19:23;9.00;99.90
13203;DHT22;6666;51.626;7.530;2022-11-23T16:21:56;9.00;99.90
13203;DHT22;6666;51.626;7.530;2022-11-23T16:24:30;8.90;99.90
13203;DHT22;6666;51.626;7.530;2022-11-23T16:27:00;9.00;99.90
13203;DHT22;6666;51.626;7.530;2022-11-23T16:29:32;9.00;99.90
13203;DHT22;6666;51.626;7.530;2022-11-23T16:32:02;9.10;99.90
13203;DHT22;6666;51.626;7.530;2022-11-23T16:34:33;9.20;99.90
13203;DHT22;6666;51.626;7.530;2022-11-23T16:37:03;9.20;99.90
13203;DHT22;6666;51.626;7.530;2022-11-23T16:39:31;9.20;99.90
13203;DHT22;6666;51.626;7.530;2022-11-23T16:41:59;9.10;99.90
13203;DHT22;6666;51.626;7.530;2022-11-23T16:44:28;9.10;99.90
13203;DHT22;6666;51.626;7.530;2022-11-23T16:47:19;9.10;99.90
13203;DHT22;6666;51.626;7.530;2022-11-23T16:49:48;9.20;99.90
13203;DHT22;6666;51.626;7.530;2022-11-23T16:52:18;9.10;99.90
13203;DHT22;6666;51.626;7.530;2022-11-23T16:54:47;9.10;99.90
13203;DHT22;6666;51.626;7.530;2022-11-23T16:57:25;9.10;99.90
13203;DHT22;6666;51.626;7.530;2022-11-23T16:59:55;9.10;99.90
13203;DHT22;6666;51.626;7.530;2022-11-23T17:02:23;9.10;99.90
13203;DHT22;6666;51.626;7.530;2022-11-23T17:04:52;9.00;99.90